.
WxDataArchive / Data Records for 2009-02-10
2009-02-09 February 2009 2009-02-11

Data Records for Tuesday, 10 February 2009

Time	Temp	Chill	HIndex	Humid	Dewpt	 Wind 	HiWind	WindDir	Rain 	Barom 
-----	----	-----	------	-----	-----	------	------	-------	-----	----- 
00:00	46.0	46.0	46.0	89	42.9	0	2	270	0.02	29.983 
00:05	46.0	46.0	46.0	90	43.2	0	1	270	0.01	29.982 
00:10	45.8	45.8	45.8	90	43.0	0	2	270	0.02	29.979 
00:15	45.7	45.7	45.7	90	42.9	0	1	270	0.02	29.971 
00:20	45.5	45.5	45.5	91	43.0	0	1	270	0.00	29.974 
00:25	45.5	45.5	45.5	91	43.0	0	3	270	0.00	29.974 
00:30	45.5	45.5	45.5	92	43.3	0	1	270	0.01	29.975 
00:35	45.5	45.5	45.5	92	43.3	0	0	---	0.00	29.976 
00:40	45.4	45.4	45.4	92	43.2	0	0	---	0.01	29.983 
00:45	45.2	45.2	45.2	92	43.0	0	1	270	0.01	29.986 
00:50	45.1	45.1	45.1	92	42.9	0	0	---	0.01	29.988 
00:55	45.1	45.1	45.1	92	42.9	0	0	---	0.01	29.987 
01:00	45.1	45.1	45.1	93	43.2	0	1	270	0.02	29.983 
01:05	45.2	45.2	45.2	93	43.3	0	2	270	0.01	29.978 
01:10	45.5	45.5	45.5	94	43.9	1	4	112	0.01	29.970 
01:15	45.7	45.7	45.7	94	44.1	0	2	112	0.00	29.955 
01:20	45.5	45.5	45.5	93	43.6	0	2	112	0.00	29.952 
01:25	45.4	45.4	45.4	94	43.8	0	2	112	0.00	29.946 
01:30	45.2	45.2	45.2	94	43.6	0	2	90	0.00	29.939 
01:35	45.2	45.2	45.2	94	43.6	1	2	90	0.00	29.937 
01:40	45.1	45.1	45.1	94	43.5	1	3	135	0.00	29.931 
01:45	45.1	45.1	45.1	94	43.5	1	3	135	0.00	29.931 
01:50	45.2	45.2	45.2	94	43.6	1	2	135	0.00	29.927 
01:55	45.4	45.4	45.4	95	44.1	1	2	90	0.00	29.929 
02:00	45.5	45.5	45.5	95	44.2	1	3	112	0.00	29.921 
02:05	45.8	45.8	45.8	95	44.4	1	3	112	0.00	29.920 
02:10	46.0	46.0	46.0	95	44.6	1	2	112	0.00	29.920 
02:15	46.1	46.1	46.1	95	44.7	1	3	112	0.00	29.917 
02:20	46.4	46.4	46.4	95	45.0	1	3	135	0.00	29.917 
02:25	46.5	46.5	46.5	95	45.1	0	3	112	0.00	29.919 
02:30	47.0	47.0	47.0	95	45.6	1	3	90	0.01	29.918 
02:35	47.4	47.4	47.4	96	46.3	1	3	90	0.00	29.915 
02:40	47.9	47.9	47.9	95	46.5	1	4	112	0.00	29.912 
02:45	48.0	48.0	48.0	95	46.6	1	3	135	0.00	29.914 
02:50	48.2	48.2	48.2	95	46.8	2	6	90	0.00	29.914 
02:55	48.3	48.3	48.3	95	46.9	1	7	112	0.00	29.917 
03:00	48.3	48.3	48.3	94	46.7	1	3	90	0.00	29.915 
03:05	48.5	48.5	48.5	94	46.9	2	6	90	0.00	29.906 
03:10	48.6	48.6	48.6	94	47.0	1	5	90	0.00	29.903 
03:15	48.6	48.6	48.6	93	46.7	1	6	90	0.00	29.902 
03:20	48.8	48.8	48.8	92	46.6	1	4	68	0.00	29.902 
03:25	48.8	48.8	48.8	92	46.6	2	6	112	0.00	29.901 
03:30	48.9	48.9	48.9	92	46.7	2	6	90	0.00	29.901 
03:35	48.8	48.8	48.8	91	46.3	2	5	112	0.00	29.899 
03:40	48.9	48.9	48.9	91	46.4	1	5	0	0.00	29.894 
03:45	48.9	48.9	48.9	91	46.4	2	6	45	0.00	29.890 
03:50	48.9	48.9	48.9	90	46.1	1	3	292	0.00	29.889 
03:55	49.1	49.1	49.1	90	46.3	1	4	315	0.00	29.887 
04:00	49.4	49.4	49.4	90	46.6	2	7	292	0.00	29.886 
04:05	49.5	49.5	49.5	89	46.4	2	5	292	0.00	29.883 
04:10	49.8	49.8	49.8	89	46.7	2	5	292	0.00	29.883 
04:15	49.9	49.9	49.9	89	46.8	3	7	202	0.00	29.882 
04:20	49.9	49.9	49.9	88	46.5	2	6	248	0.00	29.883 
04:25	50.1	50.1	50.1	88	46.7	3	7	248	0.00	29.884 
04:30	50.2	50.2	50.2	88	46.8	2	7	248	0.00	29.884 
04:35	50.4	50.4	50.4	88	47.0	2	6	270	0.00	29.883 
04:40	50.4	50.4	50.4	88	47.0	3	7	248	0.00	29.883 
04:45	50.4	50.4	50.4	88	47.0	3	9	248	0.00	29.882 
04:50	50.4	50.4	50.4	88	47.0	3	10	270	0.00	29.883 
04:55	50.5	50.5	50.5	88	47.1	3	9	248	0.00	29.882 
05:00	50.5	50.5	50.5	88	47.1	2	11	225	0.00	29.884 
05:05	50.5	50.5	50.5	87	46.8	2	6	225	0.00	29.886 
05:10	50.4	50.4	50.4	88	47.0	2	6	248	0.00	29.885 
05:15	50.4	50.4	50.4	88	47.0	3	6	248	0.00	29.885 
05:20	50.4	50.4	50.4	88	47.0	2	6	248	0.00	29.885 
05:25	50.4	50.4	50.4	88	47.0	2	10	248	0.00	29.885 
05:30	50.4	50.4	50.4	88	47.0	2	5	248	0.00	29.884 
05:35	50.4	50.4	50.4	88	47.0	2	6	248	0.00	29.884 
05:40	50.4	50.4	50.4	88	47.0	3	8	248	0.00	29.884 
05:45	50.2	50.2	50.2	88	46.8	2	6	248	0.00	29.884 
05:50	50.2	50.2	50.2	88	46.8	2	6	248	0.00	29.884 
05:55	50.2	50.2	50.2	88	46.8	2	7	248	0.00	29.883 
06:00	50.1	50.1	50.1	88	46.7	1	5	248	0.00	29.884 
06:05	49.9	49.9	49.9	88	46.5	1	5	270	0.00	29.888 
06:10	49.8	49.8	49.8	88	46.4	1	5	225	0.00	29.888 
06:15	49.8	49.8	49.8	88	46.4	1	4	270	0.00	29.888 
06:20	49.8	49.8	49.8	89	46.7	2	5	248	0.00	29.887 
06:25	49.6	49.6	49.6	89	46.5	1	6	202	0.00	29.887 
06:30	49.6	49.6	49.6	89	46.5	1	5	248	0.00	29.888 
06:35	49.8	49.8	49.8	89	46.7	2	4	248	0.00	29.888 
06:40	49.8	49.8	49.8	89	46.7	1	4	270	0.00	29.887 
06:45	49.8	49.8	49.8	89	46.7	1	5	248	0.00	29.889 
06:50	49.6	49.6	49.6	89	46.5	2	6	45	0.00	29.887 
06:55	49.8	49.8	49.8	89	46.7	1	5	68	0.00	29.887 
07:00	49.6	49.6	49.6	88	46.2	1	5	248	0.00	29.888 
07:05	49.5	49.5	49.5	88	46.1	1	3	248	0.00	29.887 
07:10	49.4	49.4	49.4	88	46.0	1	4	270	0.00	29.886 
07:15	49.2	49.2	49.2	88	45.8	1	3	270	0.00	29.886 
07:20	49.1	49.1	49.1	88	45.7	1	4	248	0.00	29.885 
07:25	48.9	48.9	48.9	88	45.5	1	6	90	0.00	29.888 
07:30	48.8	48.8	48.8	88	45.4	1	3	248	0.00	29.888 
07:35	48.8	48.8	48.8	89	45.7	1	3	270	0.00	29.888 
07:40	48.6	48.6	48.6	89	45.5	1	4	270	0.00	29.889 
07:45	48.6	48.6	48.6	89	45.5	1	5	248	0.00	29.890 
07:50	48.6	48.6	48.6	89	45.5	1	4	248	0.00	29.890 
07:55	48.8	48.8	48.8	89	45.7	1	5	68	0.00	29.889 
08:00	48.9	48.9	48.9	89	45.8	1	4	270	0.00	29.889 
08:05	49.2	49.2	49.2	89	46.1	1	4	248	0.00	29.890 
08:10	49.4	49.4	49.4	88	46.0	2	6	338	0.00	29.889 
08:15	49.4	49.4	49.4	88	46.0	2	5	270	0.00	29.890 
08:20	49.6	49.6	49.6	88	46.2	3	10	248	0.00	29.888 
08:25	49.8	49.8	49.8	87	46.1	2	7	248	0.00	29.888 
08:30	49.9	49.9	49.9	87	46.2	2	6	270	0.00	29.889 
08:35	50.1	50.1	50.1	87	46.4	2	6	270	0.00	29.888 
08:40	50.1	50.1	50.1	86	46.1	2	7	270	0.00	29.888 
08:45	50.1	50.1	50.1	86	46.1	2	4	225	0.00	29.888 
08:50	50.1	50.1	50.1	86	46.1	2	4	248	0.00	29.889 
08:55	50.2	50.2	50.2	86	46.2	2	9	248	0.00	29.890 
09:00	50.4	50.4	50.4	86	46.4	2	10	248	0.00	29.891 
09:05	50.5	50.5	50.5	86	46.5	3	11	248	0.00	29.892 
09:10	50.7	50.7	50.7	86	46.7	3	12	90	0.00	29.890 
09:15	50.7	50.7	50.7	86	46.7	2	7	248	0.00	29.890 
09:20	50.8	50.8	50.8	86	46.8	2	9	248	0.00	29.889 
09:25	51.4	51.4	51.4	86	47.4	3	10	248	0.00	29.888 
09:30	52.0	52.0	52.0	85	47.6	3	7	248	0.00	29.887 
09:35	52.5	52.5	52.5	85	48.1	3	11	225	0.00	29.887 
09:40	52.8	52.8	52.8	84	48.1	3	7	248	0.00	29.885 
09:45	52.9	52.9	52.9	84	48.2	4	14	270	0.00	29.883 
09:50	52.9	52.9	52.9	84	48.2	3	10	248	0.00	29.882 
09:55	52.9	52.9	52.9	84	48.2	3	6	248	0.00	29.882 
10:00	52.8	52.8	52.8	84	48.1	4	13	248	0.00	29.883 
10:05	52.8	52.8	52.8	84	48.1	3	11	248	0.00	29.878 
10:10	52.9	52.9	52.9	85	48.5	4	11	248	0.00	29.879 
10:15	53.2	53.2	53.2	85	48.8	3	7	248	0.00	29.879 
10:20	53.2	53.2	53.2	85	48.8	3	11	270	0.00	29.880 
10:25	53.5	53.5	53.5	85	49.1	3	7	248	0.00	29.879 
10:30	53.9	53.9	53.9	84	49.2	3	8	248	0.00	29.880 
10:35	54.5	54.5	54.5	84	49.8	2	7	270	0.00	29.878 
10:40	54.7	54.7	54.7	83	49.6	4	11	248	0.00	29.879 
10:45	54.8	54.8	54.8	84	50.1	3	9	248	0.00	29.883 
10:50	55.0	55.0	55.0	83	49.9	3	9	225	0.00	29.882 
10:55	55.1	55.1	55.1	83	50.0	3	7	270	0.00	29.881 
11:00	55.0	55.0	55.0	84	50.3	4	11	270	0.00	29.882 
11:05	55.3	55.3	55.3	84	50.5	3	11	248	0.00	29.880 
11:10	55.6	55.6	55.6	84	50.8	3	14	292	0.00	29.880 
11:15	55.7	55.7	55.7	83	50.6	4	12	270	0.00	29.879 
11:20	55.9	55.9	55.9	83	50.8	5	13	248	0.00	29.878 
11:25	56.0	56.0	56.0	83	50.9	4	12	248	0.00	29.877 
11:30	56.3	56.3	56.3	82	50.9	3	9	270	0.00	29.880 
11:35	56.6	56.6	56.6	82	51.2	4	10	270	0.00	29.878 
11:40	56.7	56.7	56.7	81	50.9	4	11	225	0.00	29.877 
11:45	57.0	57.0	57.0	81	51.2	4	11	248	0.00	29.877 
11:50	57.2	57.2	57.2	80	51.1	4	11	248	0.00	29.878 
11:55	57.3	57.3	57.3	79	50.8	4	12	270	0.00	29.871 
12:00	57.3	57.3	57.3	79	50.8	4	11	270	0.00	29.871 
12:05	57.3	57.3	57.3	80	51.2	5	13	270	0.00	29.875 
12:10	57.6	57.6	57.6	79	51.1	6	16	248	0.00	29.877 
12:15	58.0	58.0	58.0	78	51.2	5	13	248	0.00	29.862 
12:20	58.6	58.6	58.6	78	51.8	4	10	270	0.00	29.863 
12:25	58.7	58.7	58.7	76	51.2	5	11	248	0.00	29.859 
12:30	58.6	58.6	58.6	76	51.1	4	14	248	0.00	29.860 
12:35	58.4	58.4	58.4	77	51.2	5	14	248	0.00	29.858 
12:40	58.1	58.1	58.1	77	50.9	4	7	248	0.00	29.861 
12:45	58.1	58.1	58.1	77	50.9	3	7	248	0.00	29.860 
12:50	58.3	58.3	58.3	77	51.1	3	10	270	0.00	29.859 
12:55	58.6	58.6	58.6	76	51.1	4	9	248	0.00	29.847 
13:00	58.7	58.7	58.7	76	51.2	4	11	248	0.00	29.846 
13:05	58.9	58.9	58.9	76	51.3	3	11	270	0.00	29.845 
13:10	59.0	59.0	59.0	75	51.1	4	12	248	0.00	29.845 
13:15	58.9	58.9	58.9	75	51.0	5	11	270	0.00	29.843 
13:20	58.7	58.7	58.7	76	51.2	3	9	248	0.00	29.842 
13:25	58.6	58.6	58.6	76	51.1	4	12	248	0.00	29.842 
13:30	58.7	58.7	58.7	76	51.2	3	10	248	0.00	29.844 
13:35	59.0	59.0	59.0	76	51.4	4	13	248	0.00	29.843 
13:40	59.3	59.3	59.3	75	51.4	5	9	248	0.00	29.838 
13:45	59.6	59.6	59.6	74	51.3	4	13	248	0.00	29.838 
13:50	59.9	59.9	59.9	74	51.6	5	10	248	0.00	29.840 
13:55	60.1	60.1	60.1	73	51.4	4	8	270	0.00	29.835 
14:00	60.1	60.1	60.1	73	51.4	5	12	248	0.00	29.842 
14:05	60.2	60.2	60.2	73	51.5	5	13	248	0.00	29.840 
14:10	60.2	60.2	60.2	73	51.5	4	10	248	0.00	29.839 
14:15	60.1	60.1	60.1	73	51.4	5	14	248	0.00	29.840 
14:20	59.9	59.9	59.9	74	51.6	4	11	248	0.00	29.838 
14:25	59.9	59.9	59.9	73	51.2	5	10	248	0.00	29.841 
14:30	59.9	59.9	59.9	74	51.6	4	10	248	0.00	29.839 
14:35	59.8	59.8	59.8	74	51.5	4	11	248	0.00	29.836 
14:40	59.5	59.5	59.5	75	51.6	5	13	270	0.00	29.838 
14:45	59.5	59.5	59.5	75	51.6	3	10	248	0.00	29.840 
14:50	59.3	59.3	59.3	75	51.4	5	12	248	0.00	29.840 
14:55	59.2	59.2	59.2	76	51.6	5	12	248	0.00	29.837 
15:00	59.0	59.0	59.0	76	51.4	4	9	248	0.00	29.839 
15:05	59.0	59.0	59.0	77	51.8	4	7	270	0.00	29.839 
15:10	59.0	59.0	59.0	77	51.8	4	12	248	0.00	29.839 
15:15	59.0	59.0	59.0	77	51.8	2	6	270	0.00	29.839 
15:20	59.0	59.0	59.0	77	51.8	3	11	248	0.00	29.839 
15:25	58.9	58.9	58.9	78	52.0	3	10	248	0.00	29.839 
15:30	58.7	58.7	58.7	78	51.9	3	7	248	0.00	29.840 
15:35	58.7	58.7	58.7	79	52.2	2	5	248	0.00	29.840 
15:40	58.7	58.7	58.7	79	52.2	2	5	248	0.00	29.840 
15:45	58.6	58.6	58.6	79	52.1	3	12	248	0.00	29.841 
15:50	58.4	58.4	58.4	80	52.3	4	11	248	0.00	29.843 
15:55	58.3	58.3	58.3	80	52.2	3	7	248	0.00	29.843 
16:00	58.1	58.1	58.1	80	52.0	3	10	248	0.00	29.845 
16:05	58.0	58.0	58.0	81	52.2	4	10	248	0.00	29.843 
16:10	58.0	58.0	58.0	81	52.2	2	7	248	0.00	29.848 
16:15	57.8	57.8	57.8	81	52.0	2	7	248	0.00	29.842 
16:20	57.8	57.8	57.8	81	52.0	4	10	248	0.00	29.844 
16:25	57.8	57.8	57.8	81	52.0	2	6	270	0.00	29.843 
16:30	57.8	57.8	57.8	81	52.0	2	6	248	0.00	29.844 
16:35	58.0	58.0	58.0	81	52.2	2	11	248	0.00	29.851 
16:40	58.1	58.1	58.1	81	52.3	3	9	248	0.00	29.849 
16:45	58.1	58.1	58.1	81	52.3	2	6	248	0.00	29.848 
16:50	58.0	58.0	58.0	81	52.2	1	6	248	0.00	29.848 
16:55	57.8	57.8	57.8	81	52.0	2	7	248	0.00	29.849 
17:00	57.6	57.6	57.6	81	51.8	2	6	315	0.00	29.849 
17:05	57.5	57.5	57.5	85	53.0	2	6	270	0.00	29.852 
17:10	57.5	57.5	57.5	81	51.7	2	9	248	0.00	29.849 
17:15	57.5	57.5	57.5	81	51.7	3	9	248	0.00	29.854 
17:20	57.3	57.3	57.3	81	51.5	3	7	248	0.00	29.855 
17:25	57.2	57.2	57.2	81	51.4	2	5	248	0.00	29.857 
17:30	57.0	57.0	57.0	81	51.2	3	10	248	0.00	29.858 
17:35	56.9	56.9	56.9	81	51.1	2	6	248	0.00	29.860 
17:40	56.6	56.6	56.6	81	50.8	1	7	248	0.00	29.862 
17:45	56.5	56.5	56.5	82	51.1	1	4	270	0.00	29.861 
17:50	56.2	56.2	56.2	82	50.8	1	4	270	0.00	29.860 
17:55	55.9	55.9	55.9	83	50.8	1	5	270	0.00	29.866 
18:00	55.4	55.4	55.4	83	50.3	1	6	270	0.00	29.873 
18:05	55.1	55.1	55.1	84	50.4	1	4	292	0.00	29.872 
18:10	55.0	55.0	55.0	84	50.3	1	5	0	0.00	29.874 
18:15	54.7	54.7	54.7	84	50.0	0	3	292	0.00	29.875 
18:20	54.5	54.5	54.5	85	50.1	1	6	292	0.00	29.875 
18:25	54.2	54.2	54.2	85	49.8	1	2	248	0.00	29.876 
18:30	53.9	53.9	53.9	86	49.8	1	4	248	0.00	29.876 
18:35	53.6	53.6	53.6	86	49.5	1	3	292	0.00	29.876 
18:40	53.5	53.5	53.5	87	49.7	1	3	248	0.00	29.877 
18:45	53.3	53.3	53.3	87	49.5	1	4	248	0.00	29.886 
18:50	53.2	53.2	53.2	88	49.7	1	3	248	0.00	29.889 
18:55	53.1	53.1	53.1	88	49.6	1	4	248	0.00	29.890 
19:00	52.9	52.9	52.9	88	49.4	1	4	338	0.00	29.889 
19:05	52.8	52.8	52.8	89	49.6	2	7	248	0.00	29.889 
19:10	52.8	52.8	52.8	89	49.6	1	5	248	0.00	29.885 
19:15	52.6	52.6	52.6	89	49.4	1	5	292	0.00	29.885 
19:20	52.6	52.6	52.6	89	49.4	1	5	270	0.00	29.884 
19:25	52.3	52.3	52.3	89	49.2	1	4	248	0.00	29.883 
19:30	52.2	52.2	52.2	89	49.1	1	4	248	0.00	29.880 
19:35	52.2	52.2	52.2	90	49.4	1	5	270	0.00	29.879 
19:40	51.9	51.9	51.9	90	49.1	1	3	270	0.00	29.882 
19:45	51.9	51.9	51.9	91	49.4	2	7	248	0.00	29.883 
19:50	51.7	51.7	51.7	90	48.9	0	3	248	0.00	29.886 
19:55	51.4	51.4	51.4	91	48.9	1	6	338	0.00	29.881 
20:00	51.4	51.4	51.4	91	48.9	1	4	248	0.00	29.883 
20:05	51.3	51.3	51.3	91	48.8	1	6	248	0.00	29.884 
20:10	51.3	51.3	51.3	91	48.8	1	4	270	0.00	29.883 
20:15	51.3	51.3	51.3	91	48.8	2	7	248	0.00	29.879 
20:20	51.3	51.3	51.3	91	48.8	2	5	248	0.00	29.878 
20:25	51.3	51.3	51.3	91	48.8	2	5	292	0.00	29.878 
20:30	51.1	51.1	51.1	91	48.6	1	4	248	0.00	29.879 
20:35	51.1	51.1	51.1	91	48.6	1	6	270	0.00	29.880 
20:40	51.1	51.1	51.1	91	48.6	2	9	270	0.00	29.881 
20:45	51.0	51.0	51.0	91	48.5	1	5	270	0.00	29.882 
20:50	50.8	50.8	50.8	91	48.3	1	4	270	0.00	29.882 
20:55	50.7	50.7	50.7	91	48.2	1	5	292	0.00	29.879 
21:00	50.4	50.4	50.4	91	47.9	1	6	248	0.00	29.878 
21:05	50.2	50.2	50.2	91	47.7	1	3	270	0.00	29.876 
21:10	50.2	50.2	50.2	92	48.0	1	4	315	0.00	29.878 
21:15	50.1	50.1	50.1	92	47.9	1	7	270	0.00	29.880 
21:20	50.1	50.1	50.1	92	47.9	1	4	248	0.00	29.881 
21:25	49.9	49.9	49.9	92	47.7	1	4	270	0.00	29.884 
21:30	49.9	49.9	49.9	92	47.7	1	3	248	0.00	29.889 
21:35	49.8	49.8	49.8	92	47.6	1	3	292	0.00	29.889 
21:40	49.8	49.8	49.8	93	47.9	1	6	270	0.00	29.888 
21:45	49.8	49.8	49.8	93	47.9	1	4	270	0.00	29.889 
21:50	49.6	49.6	49.6	93	47.7	1	5	22	0.00	29.889 
21:55	49.6	49.6	49.6	93	47.7	1	4	248	0.00	29.890 
22:00	49.4	49.4	49.4	93	47.5	1	2	248	0.00	29.888 
22:05	49.2	49.2	49.2	93	47.3	0	2	248	0.00	29.886 
22:10	48.9	48.9	48.9	93	47.0	0	1	202	0.00	29.884 
22:15	48.9	48.9	48.9	94	47.2	0	1	158	0.00	29.884 
22:20	48.8	48.8	48.8	94	47.1	0	2	158	0.00	29.881 
22:25	48.8	48.8	48.8	94	47.1	0	2	202	0.00	29.880 
22:30	48.5	48.5	48.5	94	46.9	0	1	202	0.00	29.877 
22:35	48.3	48.3	48.3	94	46.7	0	1	202	0.00	29.876 
22:40	48.3	48.3	48.3	94	46.7	0	2	202	0.00	29.878 
22:45	48.3	48.3	48.3	94	46.7	0	1	315	0.00	29.877 
22:50	48.3	48.3	48.3	94	46.7	0	2	315	0.00	29.874 
22:55	48.3	48.3	48.3	95	46.9	0	2	315	0.00	29.865 
23:00	48.6	48.6	48.6	95	47.2	0	1	315	0.00	29.862 
23:05	48.9	48.9	48.9	95	47.5	0	1	315	0.00	29.859 
23:10	49.2	49.2	49.2	95	47.8	0	2	338	0.00	29.857 
23:15	49.4	49.4	49.4	95	48.0	0	1	338	0.00	29.855 
23:20	49.6	49.6	49.6	95	48.2	0	1	338	0.00	29.855 
23:25	49.9	49.9	49.9	96	48.8	0	2	315	0.00	29.858 
23:30	50.2	50.2	50.2	96	49.1	0	1	315	0.00	29.859 
23:35	50.4	50.4	50.4	96	49.3	0	1	315	0.00	29.862 
23:40	50.5	50.5	50.5	96	49.4	0	2	315	0.00	29.862 
23:45	50.7	50.7	50.7	96	49.6	0	1	315	0.00	29.859 
23:50	50.8	50.8	50.8	96	49.7	0	1	315	0.00	29.858 
23:55	51.0	51.0	51.0	96	49.9	1	3	338	0.00	29.856 

CoCoRaHS
IN-AL-39
A2 Web Hosting
Creative Commons License
GoDaddy
search engine by freefind advanced

loaded 2018-11-13 17:01:32 • last modified 2010-11-18 10:43:29
Privacy PolicyDisclaimer
• wx.awcolley.com is powered by PmWiki v.2002016 •
• all content (unless otherwise noted) © 2018 A W Colley